createdAt,value
2023-03-16T08:13:11.212Z,100.00
2023-03-16T08:18:20.958Z,100.00
2023-03-16T08:23:26.902Z,100.00
2023-03-16T08:28:31.871Z,100.00
2023-03-16T08:33:39.686Z,100.00
2023-03-16T08:38:53.503Z,100.00
2023-03-16T08:44:04.070Z,100.00
2023-03-16T08:49:10.964Z,100.00
2023-03-16T08:54:17.699Z,100.00
2023-03-16T08:59:29.798Z,100.00
2023-03-16T09:04:35.365Z,100.00
2023-03-16T09:09:39.738Z,100.00
2023-03-16T09:14:46.269Z,100.00
2023-03-16T09:19:53.172Z,100.00
2023-03-16T09:24:57.263Z,100.00
2023-03-16T09:30:00.811Z,96.80
2023-03-16T09:35:06.864Z,95.38
2023-03-16T09:40:16.026Z,93.18
2023-03-16T09:45:24.852Z,90.16
2023-03-16T09:50:47.838Z,87.78
2023-03-16T09:55:55.235Z,86.91
2023-03-16T10:01:24.163Z,81.69
2023-03-16T10:06:29.934Z,68.93
2023-03-16T10:11:36.614Z,67.02
2023-03-16T10:16:45.194Z,63.25
2023-03-16T10:21:51.149Z,66.05
2023-03-16T10:27:00.413Z,65.08
2023-03-16T10:32:13.063Z,66.98
2023-03-16T10:37:21.289Z,64.27
2023-03-16T10:42:28.369Z,63.88
2023-03-16T10:47:33.065Z,67.55
2023-03-16T10:52:42.529Z,64.03
2023-03-16T10:57:51.242Z,60.85
2023-03-16T11:02:58.757Z,61.25
2023-03-16T11:08:13.262Z,60.53
2023-03-16T11:13:19.005Z,60.75
2023-03-16T11:18:31.186Z,57.19
2023-03-16T11:23:41.088Z,58.89
2023-03-16T11:28:48.986Z,59.40
2023-03-16T11:33:55.551Z,59.71
2023-03-16T11:39:05.788Z,57.27
2023-03-16T11:44:15.685Z,56.80
2023-03-16T11:49:33.742Z,56.04
2023-03-16T12:00:20.778Z,55.75
2023-03-16T12:22:10.527Z,53.75
2023-03-16T12:27:17.591Z,54.56
2023-03-16T12:32:27.401Z,54.40
2023-03-16T12:37:36.643Z,52.74
2023-03-16T12:42:51.705Z,54.00
2023-03-16T12:47:59.851Z,53.98
2023-03-16T12:53:06.910Z,53.73
2023-03-16T12:58:11.807Z,52.48
2023-03-16T13:03:16.507Z,49.82
2023-03-16T13:08:22.904Z,51.23
2023-03-16T13:13:27.206Z,53.59
2023-03-16T13:18:35.981Z,53.57
2023-03-16T13:23:54.511Z,50.05
2023-03-16T13:28:58.345Z,46.95
2023-03-16T13:34:02.816Z,46.78
2023-03-16T13:39:15.227Z,49.46
2023-03-16T13:44:18.759Z,56.44
2023-03-16T13:49:22.339Z,46.73
2023-03-16T13:54:59.328Z,45.18
2023-03-16T14:00:18.085Z,43.05
2023-03-16T14:05:23.071Z,44.13
2023-03-16T14:10:30.233Z,47.42
2023-03-16T14:15:37.526Z,46.74
2023-03-16T14:20:41.902Z,48.09
2023-03-16T14:25:45.292Z,49.12
2023-03-16T14:30:54.012Z,49.69
2023-03-16T14:36:00.962Z,48.07
2023-03-16T14:41:07.546Z,49.37
2023-03-16T14:46:15.327Z,48.24
2023-03-16T14:51:18.833Z,48.78
2023-03-16T14:56:23.297Z,47.01
2023-03-16T15:01:28.179Z,46.08
2023-03-16T15:06:32.727Z,46.36
2023-03-16T15:11:36.063Z,44.38
2023-03-16T15:16:41.289Z,45.90
2023-03-16T15:21:47.263Z,44.69
2023-03-16T15:26:50.810Z,48.27
2023-03-16T15:31:55.708Z,42.48
2023-03-16T15:37:00.537Z,42.34
2023-03-16T15:42:04.724Z,43.84
2023-03-16T15:47:10.860Z,45.59
2023-03-16T15:52:22.200Z,45.07
2023-03-16T15:57:25.873Z,46.50
2023-03-16T16:02:34.700Z,43.94
2023-03-16T16:07:38.427Z,44.52
2023-03-16T16:12:44.989Z,44.85
2023-03-16T16:18:13.303Z,45.73
2023-03-16T16:23:13.987Z,43.49
2023-03-16T16:28:18.785Z,43.22
2023-03-16T16:33:27.498Z,42.30
2023-03-16T16:38:31.730Z,43.71
2023-03-16T16:43:37.901Z,44.68
2023-03-16T16:48:44.095Z,44.50
2023-03-16T16:53:47.888Z,45.22
2023-03-16T16:58:51.383Z,45.24
2023-03-16T17:03:56.531Z,45.07
2023-03-16T17:09:00.213Z,46.59
2023-03-16T17:14:04.419Z,47.45
2023-03-16T17:19:18.426Z,48.56
2023-03-16T17:24:24.568Z,49.38
2023-03-16T17:29:29.893Z,50.33
2023-03-16T17:34:35.243Z,51.15
2023-03-16T17:39:39.516Z,51.17
2023-03-16T17:44:46.443Z,50.90
2023-03-16T17:49:51.388Z,50.79
2023-03-16T17:55:42.634Z,50.14
2023-03-16T18:00:57.428Z,50.72
2023-03-16T18:06:02.208Z,50.55
2023-03-16T18:11:06.618Z,50.41
2023-03-16T18:16:15.519Z,50.88
2023-03-16T18:21:21.702Z,50.81
2023-03-16T18:26:25.272Z,51.15
2023-03-16T18:31:29.215Z,51.84
2023-03-16T18:36:35.648Z,51.44
2023-03-16T18:41:39.071Z,51.82
2023-03-16T18:46:42.478Z,51.81
2023-03-16T18:52:03.896Z,51.63
2023-03-16T18:57:16.679Z,51.34
2023-03-16T19:02:28.440Z,50.60
2023-03-16T19:07:38.445Z,51.13
2023-03-16T19:12:41.832Z,51.83
2023-03-16T19:17:45.285Z,51.60
2023-03-16T19:22:54.224Z,51.43
2023-03-16T19:27:58.199Z,52.01
2023-03-16T19:33:04.751Z,52.51
2023-03-16T19:38:10.123Z,52.35
2023-03-16T19:43:18.386Z,53.03
2023-03-16T19:48:22.666Z,53.32
2023-03-16T19:53:27.839Z,53.86
2023-03-16T19:58:32.393Z,54.14
2023-03-16T20:03:37.539Z,54.41
2023-03-16T20:08:45.866Z,54.75
2023-03-16T20:13:50.283Z,54.87
2023-03-16T20:18:55.704Z,55.21
2023-03-16T20:24:01.389Z,55.61
2023-03-16T20:29:07.405Z,55.52
2023-03-16T20:34:19.552Z,56.41
2023-03-16T20:39:25.046Z,56.26
2023-03-16T20:44:30.334Z,57.39
2023-03-16T20:49:34.157Z,58.15
2023-03-16T20:54:39.342Z,58.77
2023-03-16T20:59:43.983Z,59.06
2023-03-16T21:04:47.745Z,59.40
2023-03-16T21:09:55.978Z,60.22
2023-03-16T21:15:00.232Z,61.09
2023-03-16T21:20:03.870Z,61.69
2023-03-16T21:25:16.419Z,61.72
2023-03-16T21:30:24.594Z,62.53
2023-03-16T21:35:32.132Z,63.80
2023-03-16T21:40:39.181Z,64.00
2023-03-16T21:45:43.788Z,64.78
2023-03-16T21:50:48.447Z,65.95
2023-03-16T21:55:54.577Z,66.73
2023-03-16T22:00:58.248Z,67.92
2023-03-16T22:06:02.289Z,69.01
2023-03-16T22:11:11.668Z,71.19
2023-03-16T22:16:17.185Z,71.23
2023-03-16T22:21:28.498Z,70.93
2023-03-16T22:26:33.880Z,70.49
